Time;durP1;ratioP1;P1;durP2;ratioP2;P2;SDS_P1;SDS_P2;PMS_P1;PMS_P2;Temp;Humidity;BMP_temperature;BMP_pressure;BME280_temperature;BME280_humidity;BME280_pressure;Samples;Min_cycle;Max_cycle;Signal;HPM_P1;HPM_P2
2022/02/12 00:00:07;;;;;;;0.20;0.20;;;;;;;;;;5024479;28;20205;-65
2022/02/12 00:02:35;;;;;;;0.20;0.20;;;;;;;;;;5046950;28;20426;-65
2022/02/12 00:05:01;;;;;;;0.20;0.20;;;;;;;;;;5025178;28;20253;-67
2022/02/12 00:07:27;;;;;;;0.20;0.20;;;;;;;;;;5046757;28;20275;-66
2022/02/12 00:09:53;;;;;;;0.20;0.20;;;;;;;;;;5024412;28;20222;-66
2022/02/12 00:12:20;;;;;;;0.10;0.10;;;;;;;;;;5046824;28;20268;-66
2022/02/12 00:14:46;;;;;;;0.20;0.20;;;;;;;;;;5024579;28;20206;-66
2022/02/12 00:17:13;;;;;;;0.20;0.20;;;;;;;;;;5046704;28;20254;-66
2022/02/12 00:19:40;;;;;;;0.20;0.20;;;;;;;;;;5024736;28;20243;-65
2022/02/12 00:22:06;;;;;;;0.20;0.20;;;;;;;;;;5046629;28;20636;-66
2022/02/12 00:24:33;;;;;;;0.20;0.20;;;;;;;;;;5024678;28;20409;-66
2022/02/12 00:26:59;;;;;;;0.20;0.20;;;;;;;;;;5044723;28;20469;-66
2022/02/12 00:29:25;;;;;;;0.20;0.20;;;;;;;;;;5025821;28;20225;-66
2022/02/12 00:31:52;;;;;;;0.20;0.20;;;;;;;;;;5042893;28;20270;-67
2022/02/12 00:34:18;;;;;;;0.17;0.17;;;;;;;;;;5027903;28;20261;-66
2022/02/12 00:36:45;;;;;;;0.20;0.20;;;;;;;;;;5040523;28;20240;-66
2022/02/12 00:39:13;;;;;;;0.20;0.20;;;;;;;;;;5029494;28;20231;-67
2022/02/12 00:41:39;;;;;;;0.20;0.20;;;;;;;;;;5039105;28;20239;-65
2022/02/12 00:44:05;;;;;;;0.20;0.20;;;;;;;;;;5030691;28;20267;-65
2022/02/12 00:46:31;;;;;;;0.20;0.20;;;;;;;;;;5037119;28;20333;-66
2022/02/12 00:48:58;;;;;;;0.20;0.20;;;;;;;;;;5033230;28;20236;-66
2022/02/12 00:51:25;;;;;;;0.10;0.10;;;;;;;;;;5035168;28;20260;-66
2022/02/12 00:53:53;;;;;;;0.20;0.20;;;;;;;;;;5034399;28;20206;-67
2022/02/12 00:56:19;;;;;;;0.20;0.20;;;;;;;;;;5033743;28;20240;-66
2022/02/12 00:58:45;;;;;;;0.20;0.20;;;;;;;;;;5036216;28;20244;-67
2022/02/12 01:01:11;;;;;;;0.20;0.20;;;;;;;;;;5031445;28;20240;-67
2022/02/12 01:03:38;;;;;;;0.17;0.17;;;;;;;;;;5038300;28;20335;-66
2022/02/12 01:06:04;;;;;;;0.10;0.10;;;;;;;;;;5029791;28;20451;-67
2022/02/12 01:08:31;;;;;;;0.20;0.20;;;;;;;;;;5039660;28;20229;-66
2022/02/12 01:10:58;;;;;;;0.20;0.20;;;;;;;;;;5026629;28;20259;-65
2022/02/12 01:13:25;;;;;;;0.10;0.10;;;;;;;;;;5041568;28;20217;-67
2022/02/12 01:15:51;;;;;;;0.20;0.20;;;;;;;;;;5026276;28;20241;-66
2022/02/12 01:18:17;;;;;;;0.20;0.20;;;;;;;;;;5043256;28;20244;-67
2022/02/12 01:20:43;;;;;;;0.20;0.20;;;;;;;;;;5023973;28;20240;-65
2022/02/12 01:23:10;;;;;;;0.20;0.20;;;;;;;;;;5044800;28;20251;-66
2022/02/12 01:25:36;;;;;;;0.20;0.20;;;;;;;;;;5022033;28;20240;-67
2022/02/12 01:28:04;;;;;;;0.20;0.20;;;;;;;;;;5046921;28;20229;-65
2022/02/12 01:30:30;;;;;;;0.13;0.13;;;;;;;;;;5020382;28;20392;-66
2022/02/12 01:32:57;;;;;;;0.10;0.10;;;;;;;;;;5048477;28;20276;-66
2022/02/12 01:35:24;;;;;;;0.20;0.20;;;;;;;;;;5018269;28;20482;-66
2022/02/12 01:37:50;;;;;;;0.20;0.20;;;;;;;;;;5050118;28;20202;-65
2022/02/12 01:40:21;;;;;;;0.20;0.20;;;;;;;;;;5016717;28;20275;-66
2022/02/12 01:42:47;;;;;;;0.20;0.20;;;;;;;;;;5050603;28;20194;-66
2022/02/12 01:45:15;;;;;;;0.20;0.20;;;;;;;;;;5015727;28;20221;-66
2022/02/12 01:47:41;;;;;;;0.20;0.20;;;;;;;;;;5052446;28;20232;-65
2022/02/12 01:50:07;;;;;;;0.30;0.30;;;;;;;;;;5013955;28;20479;-66
2022/02/12 01:52:36;;;;;;;0.20;0.20;;;;;;;;;;5054291;28;20259;-66
2022/02/12 01:55:02;;;;;;;0.20;0.20;;;;;;;;;;5023041;28;20524;-65
2022/02/12 01:57:28;;;;;;;0.20;0.20;;;;;;;;;;5044877;28;20435;-66
2022/02/12 01:59:55;;;;;;;0.20;0.20;;;;;;;;;;5023265;28;20209;-66
2022/02/12 02:02:24;;;;;;;0.20;0.20;;;;;;;;;;5044826;28;20562;-66
2022/02/12 02:04:50;;;;;;;0.20;0.20;;;;;;;;;;5022930;28;20457;-66
2022/02/12 02:07:17;;;;;;;0.20;0.20;;;;;;;;;;5044510;28;20263;-67
2022/02/12 02:09:43;;;;;;;0.17;0.17;;;;;;;;;;5022499;28;20229;-65
2022/02/12 02:12:10;;;;;;;0.10;0.10;;;;;;;;;;5044623;28;20261;-66
2022/02/12 02:14:37;;;;;;;0.20;0.20;;;;;;;;;;5022602;28;20555;-65
2022/02/12 02:17:04;;;;;;;0.20;0.20;;;;;;;;;;5044003;28;20569;-65
2022/02/12 02:19:32;;;;;;;0.20;0.20;;;;;;;;;;5022637;28;20209;-65
2022/02/12 02:21:59;;;;;;;0.10;0.10;;;;;;;;;;5042072;28;20239;-65
2022/02/12 02:24:27;;;;;;;0.20;0.20;;;;;;;;;;5024351;28;20283;-66
2022/02/12 02:27:03;;;;;;;0.20;0.20;;;;;;;;;;5041113;28;20247;-66
2022/02/12 02:29:29;;;;;;;0.20;0.20;;;;;;;;;;5022796;28;20472;-66
2022/02/12 02:31:56;;;;;;;0.20;0.20;;;;;;;;;;5041506;28;20305;-66
2022/02/12 02:34:22;;;;;;;0.20;0.20;;;;;;;;;;5024956;28;20316;-66
2022/02/12 02:36:51;;;;;;;0.20;0.20;;;;;;;;;;5039955;28;20285;-66
2022/02/12 02:39:18;;;;;;;0.20;0.20;;;;;;;;;;5026122;28;20480;-66
2022/02/12 02:41:45;;;;;;;0.17;0.17;;;;;;;;;;5038388;28;20240;-65
2022/02/12 02:44:11;;;;;;;0.10;0.10;;;;;;;;;;5028120;28;20432;-66
2022/02/12 02:46:38;;;;;;;0.20;0.20;;;;;;;;;;5037068;28;20563;-69
2022/02/12 02:49:04;;;;;;;0.20;0.20;;;;;;;;;;5029554;28;20228;-65
2022/02/12 02:57:00;;;;;;;0.20;0.20;;;;;;;;;;5042252;28;20318;-66
2022/02/12 02:59:26;;;;;;;0.10;0.10;;;;;;;;;;5024118;28;20405;-66
2022/02/12 03:01:53;;;;;;;0.20;0.20;;;;;;;;;;5040835;28;20247;-64
2022/02/12 03:04:20;;;;;;;0.20;0.20;;;;;;;;;;5025385;28;20237;-66
2022/02/12 03:06:46;;;;;;;0.20;0.20;;;;;;;;;;5039152;28;20240;-65
2022/02/12 03:09:12;;;;;;;3.60;3.40;;;;;;;;;;5026782;28;20412;-66
2022/02/12 03:11:39;;;;;;;0.30;0.30;;;;;;;;;;5037251;28;20244;-66
2022/02/12 03:14:07;;;;;;;0.20;0.20;;;;;;;;;;5028765;28;20205;-67
2022/02/12 03:16:33;;;;;;;0.20;0.20;;;;;;;;;;5035451;28;20563;-65
2022/02/12 03:18:59;;;;;;;0.20;0.20;;;;;;;;;;5030263;28;20295;-67
2022/02/12 03:21:29;;;;;;;0.20;0.20;;;;;;;;;;5033570;28;20239;-66
2022/02/12 03:23:55;;;;;;;0.20;0.20;;;;;;;;;;5031399;28;20391;-66
2022/02/12 03:26:23;;;;;;;0.20;0.20;;;;;;;;;;5032683;28;20400;-66
2022/02/12 03:28:49;;;;;;;0.20;0.20;;;;;;;;;;5033083;28;20228;-65
2022/02/12 03:31:16;;;;;;;0.20;0.20;;;;;;;;;;5030840;28;20243;-66
2022/02/12 03:33:43;;;;;;;0.20;0.20;;;;;;;;;;5035010;28;20209;-65
2022/02/12 03:36:09;;;;;;;0.20;0.20;;;;;;;;;;5032501;28;20239;-65
2022/02/12 03:38:39;;;;;;;0.20;0.20;;;;;;;;;;5039642;28;20202;-66
2022/02/12 03:41:06;;;;;;;0.20;0.20;;;;;;;;;;5031603;28;20240;-65
2022/02/12 03:43:33;;;;;;;0.20;0.20;;;;;;;;;;5040857;28;20255;-65
2022/02/12 03:45:59;;;;;;;0.20;0.20;;;;;;;;;;5030063;28;20240;-66
2022/02/12 03:48:27;;;;;;;0.20;0.20;;;;;;;;;;5042442;28;20209;-66
2022/02/12 03:50:54;;;;;;;0.20;0.20;;;;;;;;;;5028211;28;20244;-65
2022/02/12 03:53:20;;;;;;;0.20;0.20;;;;;;;;;;5044143;28;20496;-65
2022/02/12 03:55:47;;;;;;;0.20;0.20;;;;;;;;;;5026393;28;20240;-66
2022/02/12 03:58:14;;;;;;;0.20;0.20;;;;;;;;;;5045914;28;20519;-65
2022/02/12 04:00:41;;;;;;;0.20;0.20;;;;;;;;;;5024293;28;20240;-66
2022/02/12 04:03:07;;;;;;;0.20;0.20;;;;;;;;;;5047164;28;20206;-66
2022/02/12 04:05:36;;;;;;;0.20;0.20;;;;;;;;;;5022991;28;20243;-66
2022/02/12 04:08:02;;;;;;;0.20;0.20;;;;;;;;;;5048731;28;20255;-65
2022/02/12 04:10:29;;;;;;;0.20;0.20;;;;;;;;;;5021096;28;20244;-66
2022/02/12 04:12:55;;;;;;;0.20;0.20;;;;;;;;;;5050211;28;20280;-66
2022/02/12 04:15:22;;;;;;;0.20;0.20;;;;;;;;;;5019376;28;20415;-66
2022/02/12 04:17:48;;;;;;;0.20;0.20;;;;;;;;;;5052301;28;20197;-67
2022/02/12 04:20:16;;;;;;;0.20;0.20;;;;;;;;;;5017653;28;20205;-66
2022/02/12 04:22:44;;;;;;;0.20;0.20;;;;;;;;;;5053620;28;20503;-65
2022/02/12 04:25:13;;;;;;;0.20;0.20;;;;;;;;;;5015944;28;20220;-66
2022/02/12 04:27:39;;;;;;;0.30;0.30;;;;;;;;;;5054181;28;20193;-66
2022/02/12 04:30:06;;;;;;;0.20;0.20;;;;;;;;;;5019081;28;20229;-67
2022/02/12 04:32:32;;;;;;;0.20;0.20;;;;;;;;;;5056066;28;20421;-66
2022/02/12 04:34:59;;;;;;;0.20;0.20;;;;;;;;;;5024465;28;20271;-66
2022/02/12 04:37:26;;;;;;;0.20;0.20;;;;;;;;;;5046306;28;20246;-66
2022/02/12 04:39:54;;;;;;;0.20;0.20;;;;;;;;;;5024341;28;20300;-65
2022/02/12 04:42:20;;;;;;;0.10;0.10;;;;;;;;;;5046281;28;20395;-66
2022/02/12 04:44:47;;;;;;;0.20;0.20;;;;;;;;;;5024513;28;20205;-67
2022/02/12 04:47:13;;;;;;;0.20;0.20;;;;;;;;;;5045950;28;20247;-65
2022/02/12 04:49:40;;;;;;;0.20;0.20;;;;;;;;;;5024139;28;20225;-66
2022/02/12 04:52:07;;;;;;;0.20;0.20;;;;;;;;;;5046079;28;20240;-66
2022/02/12 04:54:33;;;;;;;0.20;0.20;;;;;;;;;;5024051;28;20268;-66
2022/02/12 04:57:01;;;;;;;0.20;0.20;;;;;;;;;;5043546;28;20636;-65
2022/02/12 04:59:27;;;;;;;0.20;0.20;;;;;;;;;;5025661;28;20528;-66
2022/02/12 05:01:54;;;;;;;0.20;0.20;;;;;;;;;;5041538;28;20240;-67
2022/02/12 05:04:24;;;;;;;0.20;0.20;;;;;;;;;;5027919;28;20205;-66
2022/02/12 05:06:50;;;;;;;0.20;0.20;;;;;;;;;;5041349;28;20397;-66
2022/02/12 05:09:17;;;;;;;0.20;0.20;;;;;;;;;;5027607;28;20460;-66
2022/02/12 05:11:46;;;;;;;0.20;0.20;;;;;;;;;;5039787;28;20547;-68
2022/02/12 05:14:13;;;;;;;0.20;0.20;;;;;;;;;;5028919;28;20205;-65
2022/02/12 05:16:40;;;;;;;0.20;0.20;;;;;;;;;;5039096;28;20418;-67
2022/02/12 05:19:06;;;;;;;0.20;0.20;;;;;;;;;;5029654;28;20351;-65
2022/02/12 05:21:33;;;;;;;0.20;0.20;;;;;;;;;;5037369;28;20472;-66
2022/02/12 05:23:59;;;;;;;0.17;0.17;;;;;;;;;;5031562;28;20217;-65
2022/02/12 05:26:26;;;;;;;0.20;0.20;;;;;;;;;;5035174;28;20617;-65
2022/02/12 05:28:52;;;;;;;0.20;0.20;;;;;;;;;;5033774;28;20300;-66
2022/02/12 05:31:19;;;;;;;0.20;0.20;;;;;;;;;;5033008;28;20239;-66
2022/02/12 05:33:46;;;;;;;0.20;0.20;;;;;;;;;;5035366;28;20402;-66
2022/02/12 05:36:12;;;;;;;0.20;0.20;;;;;;;;;;5031385;28;20255;-66
2022/02/12 05:38:39;;;;;;;0.20;0.20;;;;;;;;;;5037166;28;20248;-65
2022/02/12 05:41:06;;;;;;;0.20;0.20;;;;;;;;;;5029470;28;20318;-66
2022/02/12 05:43:32;;;;;;;0.20;0.20;;;;;;;;;;5038543;28;20205;-67
2022/02/12 05:45:59;;;;;;;0.20;0.20;;;;;;;;;;5027633;28;20239;-66
2022/02/12 05:48:26;;;;;;;0.20;0.20;;;;;;;;;;5040656;28;20558;-66
2022/02/12 05:50:53;;;;;;;0.20;0.20;;;;;;;;;;5025462;28;20558;-65
2022/02/12 05:53:20;;;;;;;0.20;0.20;;;;;;;;;;5042575;28;20205;-66
2022/02/12 05:55:46;;;;;;;0.20;0.20;;;;;;;;;;5024000;28;20244;-65
2022/02/12 05:58:12;;;;;;;0.30;0.30;;;;;;;;;;5043488;28;20205;-65
2022/02/12 06:00:39;;;;;;;0.20;0.20;;;;;;;;;;5021090;28;20239;-66
2022/02/12 06:03:05;;;;;;;0.20;0.20;;;;;;;;;;5046548;28;20245;-66
2022/02/12 06:05:33;;;;;;;0.20;0.20;;;;;;;;;;5020040;28;20345;-66
2022/02/12 06:08:00;;;;;;;0.20;0.20;;;;;;;;;;5047384;28;20205;-67
2022/02/12 06:10:27;;;;;;;0.20;0.20;;;;;;;;;;5018608;28;20408;-68
2022/02/12 06:12:53;;;;;;;0.20;0.20;;;;;;;;;;5048323;28;20206;-66
2022/02/12 06:15:21;;;;;;;0.20;0.20;;;;;;;;;;5016847;28;20257;-67
2022/02/12 06:17:47;;;;;;;0.20;0.20;;;;;;;;;;5050141;28;20437;-65
2022/02/12 06:20:14;;;;;;;0.10;0.10;;;;;;;;;;5015168;28;20273;-66
2022/02/12 06:22:41;;;;;;;0.20;0.20;;;;;;;;;;5052221;28;20255;-65
2022/02/12 06:25:08;;;;;;;0.20;0.20;;;;;;;;;;5013458;28;20264;-66
2022/02/12 06:27:34;;;;;;;0.20;0.20;;;;;;;;;;5053311;28;20197;-67
2022/02/12 06:30:00;;;;;;;0.20;0.20;;;;;;;;;;5022763;28;20225;-65
2022/02/12 06:32:27;;;;;;;0.20;0.20;;;;;;;;;;5044467;28;20240;-66
2022/02/12 06:34:56;;;;;;;0.20;0.20;;;;;;;;;;5022706;28;20205;-66
2022/02/12 06:37:22;;;;;;;0.20;0.20;;;;;;;;;;5044336;28;20240;-65
2022/02/12 06:39:49;;;;;;;0.20;0.20;;;;;;;;;;5022601;28;20209;-67
2022/02/12 06:42:16;;;;;;;0.20;0.20;;;;;;;;;;5044361;28;20248;-66
2022/02/12 06:44:42;;;;;;;0.20;0.20;;;;;;;;;;5022634;28;20248;-67
2022/02/12 06:47:08;;;;;;;0.20;0.20;;;;;;;;;;5044445;28;20239;-65
2022/02/12 06:49:35;;;;;;;0.20;0.20;;;;;;;;;;5022350;28;20231;-66
2022/02/12 06:52:01;;;;;;;0.20;0.20;;;;;;;;;;5043206;28;20247;-66
2022/02/12 06:54:27;;;;;;;0.20;0.20;;;;;;;;;;5023192;28;20201;-66
2022/02/12 06:56:55;;;;;;;0.20;0.20;;;;;;;;;;5040994;28;20247;-67
2022/02/12 06:59:21;;;;;;;0.20;0.20;;;;;;;;;;5025430;28;20209;-66
2022/02/12 07:01:47;;;;;;;0.20;0.20;;;;;;;;;;5038980;28;20240;-66
2022/02/12 07:04:14;;;;;;;0.20;0.20;;;;;;;;;;5027411;28;20236;-66
2022/02/12 07:06:40;;;;;;;0.20;0.20;;;;;;;;;;5037410;28;20278;-66
2022/02/12 07:09:06;;;;;;;0.20;0.20;;;;;;;;;;5029242;28;20524;-65
2022/02/12 07:11:32;;;;;;;0.20;0.20;;;;;;;;;;5039257;28;20302;-65
2022/02/12 07:14:01;;;;;;;0.20;0.20;;;;;;;;;;5034474;28;20555;-66
2022/02/12 07:16:27;;;;;;;0.20;0.20;;;;;;;;;;5037958;28;20349;-65
2022/02/12 07:18:53;;;;;;;0.20;0.20;;;;;;;;;;5035445;28;20205;-66
2022/02/12 07:21:20;;;;;;;0.30;0.30;;;;;;;;;;5035649;28;20240;-66
2022/02/12 07:23:46;;;;;;;0.20;0.20;;;;;;;;;;5037809;28;20563;-67
2022/02/12 07:26:12;;;;;;;0.20;0.20;;;;;;;;;;5033823;28;20248;-66
2022/02/12 07:28:40;;;;;;;0.20;0.20;;;;;;;;;;5039742;28;20435;-66
2022/02/12 07:31:08;;;;;;;0.20;0.20;;;;;;;;;;5031734;28;20546;-67
2022/02/12 07:33:34;;;;;;;0.20;0.20;;;;;;;;;;5041032;28;20205;-66
2022/02/12 07:36:00;;;;;;;0.20;0.20;;;;;;;;;;5030401;28;20239;-66
2022/02/12 07:38:27;;;;;;;0.20;0.20;;;;;;;;;;5042814;28;20205;-67
2022/02/12 07:40:53;;;;;;;0.30;0.30;;;;;;;;;;5028372;28;20256;-66
2022/02/12 07:43:19;;;;;;;0.20;0.20;;;;;;;;;;5044700;28;20249;-66
2022/02/12 07:45:45;;;;;;;0.20;0.20;;;;;;;;;;5026318;28;20442;-66
2022/02/12 07:48:13;;;;;;;0.20;0.20;;;;;;;;;;5046434;28;20205;-65
2022/02/12 07:50:39;;;;;;;0.20;0.20;;;;;;;;;;5024563;28;20577;-66
2022/02/12 07:53:05;;;;;;;0.20;0.20;;;;;;;;;;5047811;28;20259;-67
2022/02/12 07:55:32;;;;;;;0.20;0.20;;;;;;;;;;5022363;28;20244;-66
2022/02/12 07:57:59;;;;;;;0.30;0.30;;;;;;;;;;5049374;28;20232;-66
2022/02/12 08:00:25;;;;;;;0.20;0.20;;;;;;;;;;5020893;28;20472;-67
2022/02/12 08:02:54;;;;;;;0.20;0.20;;;;;;;;;;5051020;28;20504;-66
2022/02/12 08:05:22;;;;;;;0.20;0.20;;;;;;;;;;5019684;28;20272;-66
2022/02/12 08:07:48;;;;;;;0.20;0.20;;;;;;;;;;5052314;28;20193;-67
2022/02/12 08:13:00;;;;;;;0.20;0.20;;;;;;;;;;5048810;28;20188;-67
2022/02/12 08:15:26;;;;;;;0.20;0.20;;;;;;;;;;5020910;28;20301;-66
2022/02/12 08:17:52;;;;;;;0.10;0.10;;;;;;;;;;5050832;28;20197;-66
2022/02/12 08:20:19;;;;;;;0.20;0.20;;;;;;;;;;5018255;28;20217;-66
2022/02/12 08:22:46;;;;;;;0.20;0.20;;;;;;;;;;5052397;28;20233;-66
2022/02/12 08:25:13;;;;;;;0.20;0.20;;;;;;;;;;5016954;28;20209;-67
2022/02/12 08:27:39;;;;;;;0.20;0.20;;;;;;;;;;5054005;28;20196;-66
2022/02/12 08:30:07;;;;;;;0.20;0.20;;;;;;;;;;5021721;28;20285;-67
2022/02/12 08:32:33;;;;;;;0.20;0.20;;;;;;;;;;5055953;28;20341;-67
2022/02/12 08:34:59;;;;;;;0.17;0.17;;;;;;;;;;5024637;28;20209;-66
2022/02/12 08:37:25;;;;;;;0.10;0.10;;;;;;;;;;5046335;28;20374;-66
2022/02/12 08:39:53;;;;;;;0.10;0.10;;;;;;;;;;5024303;28;20255;-66
2022/02/12 08:42:20;;;;;;;0.10;0.10;;;;;;;;;;5046358;28;20282;-66
2022/02/12 08:44:47;;;;;;;0.10;0.10;;;;;;;;;;5024336;28;20211;-66
2022/02/12 08:47:13;;;;;;;0.10;0.10;;;;;;;;;;5046335;28;20286;-68
2022/02/12 08:49:39;;;;;;;0.10;0.10;;;;;;;;;;5023991;28;20205;-66
2022/02/12 08:52:06;;;;;;;0.20;0.20;;;;;;;;;;5046084;28;20245;-66
2022/02/12 08:54:33;;;;;;;0.10;0.10;;;;;;;;;;5024063;28;20220;-66
2022/02/12 08:57:01;;;;;;;0.10;0.10;;;;;;;;;;5044348;28;20248;-67
2022/02/12 08:59:29;;;;;;;0.10;0.10;;;;;;;;;;5024625;28;20254;-66
2022/02/12 09:01:55;;;;;;;0.20;0.20;;;;;;;;;;5043170;28;20258;-67
2022/02/12 09:04:21;;;;;;;0.10;0.10;;;;;;;;;;5026615;28;20495;-69
2022/02/12 09:06:47;;;;;;;0.10;0.10;;;;;;;;;;5040843;28;20240;-68
2022/02/12 09:09:14;;;;;;;0.10;0.10;;;;;;;;;;5028398;28;20213;-68
2022/02/12 09:11:42;;;;;;;0.10;0.10;;;;;;;;;;5038915;28;20271;-68
2022/02/12 09:14:10;;;;;;;0.10;0.10;;;;;;;;;;5029708;28;20247;-68
2022/02/12 09:16:38;;;;;;;0.10;0.10;;;;;;;;;;5037790;28;20327;-68
2022/02/12 09:19:04;;;;;;;0.10;0.10;;;;;;;;;;5030352;28;20261;-67
2022/02/12 09:21:31;;;;;;;0.10;0.10;;;;;;;;;;5036175;28;20255;-67
2022/02/12 09:23:57;;;;;;;0.10;0.10;;;;;;;;;;5032472;28;20482;-68
2022/02/12 09:26:27;;;;;;;0.10;0.10;;;;;;;;;;5034502;28;20243;-69
2022/02/12 09:28:54;;;;;;;0.10;0.10;;;;;;;;;;5033067;28;20230;-69
2022/02/12 09:31:21;;;;;;;0.10;0.10;;;;;;;;;;5033148;28;20241;-69
2022/02/12 09:33:47;;;;;;;0.10;0.10;;;;;;;;;;5034926;28;20216;-69
2022/02/12 09:36:14;;;;;;;0.10;0.10;;;;;;;;;;5031673;28;20243;-70
2022/02/12 09:38:40;;;;;;;0.10;0.10;;;;;;;;;;5037343;28;20281;-69
2022/02/12 09:41:06;;;;;;;0.10;0.10;;;;;;;;;;5029693;28;20646;-69
2022/02/12 09:43:34;;;;;;;0.10;0.10;;;;;;;;;;5038836;28;20216;-72
2022/02/12 09:46:09;;;;;;;0.10;0.10;;;;;;;;;;5028110;28;20246;-67
2022/02/12 09:48:37;;;;;;;0.10;0.10;;;;;;;;;;5037875;28;20197;-69
2022/02/12 09:51:04;;;;;;;0.10;0.10;;;;;;;;;;5028339;28;20525;-68
2022/02/12 09:53:30;;;;;;;0.53;0.53;;;;;;;;;;5039607;28;20231;-68
2022/02/12 09:55:57;;;;;;;0.10;0.10;;;;;;;;;;5027097;28;20246;-68
2022/02/12 09:58:23;;;;;;;0.10;0.10;;;;;;;;;;5041275;28;20216;-69
2022/02/12 10:00:50;;;;;;;0.00;0.00;;;;;;;;;;5025283;28;20232;-68
2022/02/12 10:03:16;;;;;;;0.10;0.10;;;;;;;;;;5043153;28;20255;-69
2022/02/12 10:05:51;;;;;;;0.10;0.10;;;;;;;;;;5023305;28;20249;-69
2022/02/12 10:08:17;;;;;;;0.10;0.10;;;;;;;;;;5043140;28;20196;-68
2022/02/12 10:10:45;;;;;;;0.10;0.10;;;;;;;;;;5022976;28;20239;-70
2022/02/12 10:13:13;;;;;;;0.10;0.10;;;;;;;;;;5044345;28;20208;-69
2022/02/12 10:15:39;;;;;;;0.10;0.10;;;;;;;;;;5021960;28;20240;-68
2022/02/12 10:18:06;;;;;;;0.10;0.10;;;;;;;;;;5045130;28;20440;-70
2022/02/12 10:20:33;;;;;;;0.10;0.10;;;;;;;;;;5020247;28;20480;-69
2022/02/12 10:23:05;;;;;;;0.10;0.10;;;;;;;;;;5047487;28;20212;-70
2022/02/12 10:25:32;;;;;;;0.10;0.10;;;;;;;;;;5020176;28;20253;-69
2022/02/12 10:27:58;;;;;;;0.10;0.10;;;;;;;;;;5047803;28;20234;-68
2022/02/12 10:30:25;;;;;;;0.10;0.10;;;;;;;;;;5018401;28;20254;-69
2022/02/12 10:32:54;;;;;;;0.10;0.10;;;;;;;;;;5049133;28;20199;-70
2022/02/12 10:35:20;;;;;;;0.10;0.10;;;;;;;;;;5017153;28;20511;-70
2022/02/12 10:37:48;;;;;;;0.00;0.00;;;;;;;;;;5050435;28;20216;-70
2022/02/12 10:40:16;;;;;;;0.10;0.10;;;;;;;;;;5015152;28;20236;-69
2022/02/12 10:42:44;;;;;;;0.10;0.10;;;;;;;;;;5051921;28;20294;-69
2022/02/12 10:45:13;;;;;;;0.10;0.10;;;;;;;;;;5018353;28;20212;-70
2022/02/12 10:47:39;;;;;;;0.00;0.00;;;;;;;;;;5055885;28;20286;-69
2022/02/12 10:50:07;;;;;;;0.10;0.10;;;;;;;;;;5018023;28;20210;-70
2022/02/12 10:52:40;;;;;;;0.10;0.10;;;;;;;;;;5057473;28;20247;-69
2022/02/12 10:55:07;;;;;;;0.10;0.10;;;;;;;;;;5024471;28;20205;-70
2022/02/12 10:57:38;;;;;;;0.10;0.10;;;;;;;;;;5057776;28;20512;-69
2022/02/12 11:00:05;;;;;;;0.00;0.00;;;;;;;;;;5025051;28;20382;-69
2022/02/12 11:02:32;;;;;;;0.10;0.10;;;;;;;;;;5058046;28;20536;-68
2022/02/12 11:04:59;;;;;;;0.10;0.10;;;;;;;;;;5026377;28;20247;-68
2022/02/12 11:07:26;;;;;;;0.10;0.10;;;;;;;;;;5048187;28;20252;-69
2022/02/12 11:09:53;;;;;;;0.10;0.10;;;;;;;;;;5026244;28;20218;-69
2022/02/12 11:12:21;;;;;;;0.00;0.00;;;;;;;;;;5048080;28;20254;-69
2022/02/12 11:14:48;;;;;;;0.10;0.10;;;;;;;;;;5026091;28;20421;-70
2022/02/12 11:17:16;;;;;;;0.00;0.00;;;;;;;;;;5047898;28;20272;-68
2022/02/12 11:19:44;;;;;;;0.10;0.10;;;;;;;;;;5025963;28;20405;-69
2022/02/12 11:22:11;;;;;;;0.03;0.03;;;;;;;;;;5047799;28;20399;-67
2022/02/12 11:24:38;;;;;;;0.10;0.10;;;;;;;;;;5025797;28;20492;-68
2022/02/12 11:27:17;;;;;;;0.10;0.10;;;;;;;;;;5047537;28;20240;-69
2022/02/12 11:29:44;;;;;;;0.10;0.10;;;;;;;;;;5025974;28;20208;-68
2022/02/12 11:32:13;;;;;;;0.10;0.10;;;;;;;;;;5047742;28;20238;-70
2022/02/12 11:34:43;;;;;;;0.10;0.10;;;;;;;;;;5025662;28;20277;-70
2022/02/12 11:37:14;;;;;;;0.10;0.10;;;;;;;;;;5047513;28;20242;-69
2022/02/12 11:39:40;;;;;;;0.03;0.03;;;;;;;;;;5025730;28;20238;-73
2022/02/12 11:42:12;;;;;;;0.10;0.10;;;;;;;;;;5047256;28;20242;-69
2022/02/12 11:44:42;;;;;;;0.10;0.10;;;;;;;;;;5025660;28;20212;-69
2022/02/12 11:47:09;;;;;;;0.10;0.10;;;;;;;;;;5047367;28;20271;-68
2022/02/12 11:49:37;;;;;;;0.10;0.10;;;;;;;;;;5025625;28;20500;-66
2022/02/12 11:52:05;;;;;;;0.10;0.10;;;;;;;;;;5046619;28;20279;-67
2022/02/12 11:54:56;;;;;;;0.10;0.10;;;;;;;;;;5025040;28;20206;-69
2022/02/12 11:57:37;;;;;;;0.10;0.10;;;;;;;;;;5047197;28;20247;-69
2022/02/12 12:00:21;;;;;;;0.10;0.10;;;;;;;;;;5025377;28;20400;-69
2022/02/12 12:02:48;;;;;;;0.10;0.10;;;;;;;;;;5025973;28;20220;-70
2022/02/12 12:05:19;;;;;;;0.10;0.10;;;;;;;;;;5017798;28;20209;-69
2022/02/12 12:08:07;;;;;;;0.10;0.10;;;;;;;;;;5053554;28;20377;-68
2022/02/12 12:10:34;;;;;;;0.10;0.10;;;;;;;;;;5022481;28;20246;-68
2022/02/12 12:13:01;;;;;;;0.10;0.10;;;;;;;;;;5048745;28;20191;-70
2022/02/12 12:15:27;;;;;;;0.10;0.10;;;;;;;;;;5020891;28;20250;-69
2022/02/12 12:17:54;;;;;;;0.10;0.10;;;;;;;;;;5050887;28;20215;-69
2022/02/12 12:20:22;;;;;;;0.10;0.10;;;;;;;;;;5019098;28;20524;-68
2022/02/12 12:22:50;;;;;;;0.10;0.10;;;;;;;;;;5052091;28;20219;-67
2022/02/12 12:25:16;;;;;;;0.10;0.10;;;;;;;;;;5018148;28;20207;-69
2022/02/12 12:27:43;;;;;;;0.10;0.10;;;;;;;;;;5053395;28;20259;-69
2022/02/12 12:32:55;;;;;;;0.10;0.10;;;;;;;;;;5050372;28;20231;-69
2022/02/12 12:35:23;;;;;;;0.10;0.10;;;;;;;;;;5019028;28;20440;-69
2022/02/12 12:37:50;;;;;;;0.10;0.10;;;;;;;;;;5051871;28;20447;-69
2022/02/12 12:40:17;;;;;;;0.10;0.10;;;;;;;;;;5017570;28;20555;-68
2022/02/12 12:42:43;;;;;;;0.10;0.10;;;;;;;;;;5053325;28;20214;-68
2022/02/12 12:45:11;;;;;;;0.10;0.10;;;;;;;;;;5015738;28;20252;-69
2022/02/12 12:47:38;;;;;;;0.10;0.10;;;;;;;;;;5054493;28;20435;-68
2022/02/12 12:50:05;;;;;;;0.20;0.20;;;;;;;;;;5023086;28;20205;-68
2022/02/12 12:52:33;;;;;;;0.40;0.40;;;;;;;;;;5054529;28;20216;-68
2022/02/12 12:55:06;;;;;;;0.10;0.10;;;;;;;;;;5024205;28;20281;-68
2022/02/12 12:57:33;;;;;;;0.10;0.10;;;;;;;;;;5012609;28;20235;-68
2022/02/12 13:00:00;;;;;;;0.10;0.10;;;;;;;;;;5023984;28;20399;-68
2022/02/12 13:02:27;;;;;;;0.10;0.10;;;;;;;;;;5045918;28;20511;-69
2022/02/12 13:04:54;;;;;;;0.10;0.10;;;;;;;;;;5024034;28;20205;-70
2022/02/12 13:07:23;;;;;;;0.10;0.10;;;;;;;;;;5045761;28;20255;-69
2022/02/12 13:09:50;;;;;;;0.10;0.10;;;;;;;;;;5023641;28;20255;-70
2022/02/12 13:12:23;;;;;;;0.10;0.10;;;;;;;;;;5045490;28;20381;-69
2022/02/12 13:14:49;;;;;;;0.10;0.10;;;;;;;;;;5023669;28;20447;-69
2022/02/12 13:17:17;;;;;;;0.10;0.10;;;;;;;;;;5045669;28;20242;-69
2022/02/12 13:19:43;;;;;;;0.10;0.10;;;;;;;;;;5023776;28;20211;-70
2022/02/12 13:22:13;;;;;;;0.10;0.10;;;;;;;;;;5045434;28;20236;-68
2022/02/12 13:24:40;;;;;;;0.10;0.10;;;;;;;;;;5023818;28;20476;-68
2022/02/12 13:27:09;;;;;;;0.10;0.10;;;;;;;;;;5045520;28;20691;-69
2022/02/12 13:29:36;;;;;;;0.10;0.10;;;;;;;;;;5023641;28;20372;-70
2022/02/12 13:32:06;;;;;;;0.10;0.10;;;;;;;;;;5044658;28;20250;-69
2022/02/12 13:34:32;;;;;;;0.20;0.20;;;;;;;;;;5023372;28;20209;-69
2022/02/12 13:36:59;;;;;;;0.10;0.10;;;;;;;;;;5043454;28;20243;-67
2022/02/12 13:39:26;;;;;;;0.10;0.10;;;;;;;;;;5024463;28;20296;-66
2022/02/12 13:41:53;;;;;;;0.10;0.10;;;;;;;;;;5041632;28;20235;-66
2022/02/12 13:44:27;;;;;;;0.13;0.13;;;;;;;;;;5026472;28;20480;-66
2022/02/12 13:46:53;;;;;;;0.10;0.10;;;;;;;;;;5042264;28;20242;-66
2022/02/12 13:49:20;;;;;;;0.17;0.17;;;;;;;;;;5026239;28;20215;-67
2022/02/12 13:51:51;;;;;;;0.10;0.10;;;;;;;;;;5040624;28;20242;-65
2022/02/12 13:54:17;;;;;;;0.10;0.10;;;;;;;;;;5026731;28;20215;-66
2022/02/12 13:56:44;;;;;;;0.10;0.10;;;;;;;;;;5039193;28;20239;-66
2022/02/12 13:59:11;;;;;;;0.17;0.17;;;;;;;;;;5028454;28;20290;-66
2022/02/12 14:01:38;;;;;;;0.10;0.10;;;;;;;;;;5037133;28;20250;-66
2022/02/12 14:04:05;;;;;;;0.10;0.10;;;;;;;;;;5029746;28;20410;-67
2022/02/12 14:06:31;;;;;;;0.10;0.10;;;;;;;;;;5035954;28;20239;-66
2022/02/12 14:09:00;;;;;;;0.10;0.10;;;;;;;;;;5031818;28;20219;-66
2022/02/12 14:11:27;;;;;;;0.10;0.10;;;;;;;;;;5034725;28;20258;-66
2022/02/12 14:13:53;;;;;;;0.10;0.10;;;;;;;;;;5032600;28;20208;-67
2022/02/12 14:16:20;;;;;;;0.10;0.10;;;;;;;;;;5032534;28;20243;-67
2022/02/12 14:18:47;;;;;;;0.10;0.10;;;;;;;;;;5034155;28;20291;-67
2022/02/12 14:21:14;;;;;;;0.53;0.53;;;;;;;;;;5030750;28;20242;-66
2022/02/12 14:23:40;;;;;;;0.10;0.10;;;;;;;;;;5035838;28;20236;-67
2022/02/12 14:26:06;;;;;;;0.10;0.10;;;;;;;;;;5029402;28;20251;-66
2022/02/12 14:28:33;;;;;;;0.10;0.10;;;;;;;;;;5038297;28;20207;-65
2022/02/12 14:30:59;;;;;;;0.10;0.10;;;;;;;;;;5026956;28;20266;-66
2022/02/12 14:33:25;;;;;;;0.17;0.17;;;;;;;;;;5040481;28;20213;-67
2022/02/12 14:35:53;;;;;;;0.10;0.10;;;;;;;;;;5025401;28;20243;-66
2022/02/12 14:38:19;;;;;;;0.10;0.10;;;;;;;;;;5041866;28;20227;-66
2022/02/12 14:40:46;;;;;;;0.10;0.10;;;;;;;;;;5023723;28;20248;-66
2022/02/12 14:43:12;;;;;;;0.10;0.10;;;;;;;;;;5043246;28;20235;-67
2022/02/12 14:45:39;;;;;;;0.20;0.20;;;;;;;;;;5021769;28;20306;-66
2022/02/12 14:48:05;;;;;;;0.10;0.10;;;;;;;;;;5045506;28;20197;-67
2022/02/12 14:50:31;;;;;;;0.10;0.10;;;;;;;;;;5019801;28;20346;-67
2022/02/12 14:52:59;;;;;;;0.10;0.10;;;;;;;;;;5046906;28;20507;-66